Terminal Aerodrome Forecast
Issued by NWS Bismarck, ND

Home | Current Version | Previous Version | Graphics & Text | Print | Product List | Glossary On
Versions: 1 2 3 4 5 6 7 8 9 10 11 12 13 14 15 16 17 18
000
FTUS43 KBIS 031125
TAFISN
TAF
KISN 031125Z 0312/0412 35008KT P6SM SCT150
     FM032100 34012KT P6SM SCT080
     FM040300 36014KT P6SM SCT050 BKN080
     FM040700 01012KT P6SM VCSH SCT035 BKN050 OVC080=

USA.gov is the U.S. government's official web portal to all federal, state and local government web resources and services.